createdAt,value
2018-02-07T00:00:47.362Z,90.63
2018-02-07T00:01:47.333Z,91.2
2018-02-07T00:02:47.301Z,90.91
2018-02-07T00:03:47.267Z,91.29
2018-02-07T00:04:46.987Z,91.29
2018-02-07T00:05:47.199Z,91.01
2018-02-07T00:06:46.923Z,91.01
2018-02-07T00:07:46.890Z,91.01
2018-02-07T00:08:46.857Z,91.48
2018-02-07T00:09:47.076Z,91.48
2018-02-07T00:10:47.038Z,91.67
2018-02-07T00:11:47.005Z,91.2
2018-02-07T00:12:46.972Z,91.77
2018-02-07T00:13:46.941Z,91.86
2018-02-07T00:14:46.904Z,91.77
2018-02-07T00:15:46.870Z,91.67
2018-02-07T00:16:46.849Z,91.48
2018-02-07T00:17:46.564Z,92.14
2018-02-07T00:18:46.530Z,92.24
2018-02-07T00:19:46.742Z,92.33
2018-02-07T00:20:46.462Z,92.14
2018-02-07T00:21:46.677Z,92.24
2018-02-07T00:22:46.643Z,92.14
2018-02-07T00:23:46.610Z,91.96
2018-02-07T00:24:46.579Z,92.43
2018-02-07T00:25:46.301Z,91.96
2018-02-07T00:26:46.517Z,92.71
2018-02-07T00:27:46.480Z,92.9
2018-02-07T00:28:46.202Z,92.9
2018-02-07T00:29:46.412Z,92.52
2018-02-07T00:30:46.381Z,92.61
2018-02-07T00:31:46.346Z,92.9
2018-02-07T00:32:46.316Z,92.43
2018-02-07T00:33:46.282Z,92.52
2018-02-07T00:34:46.250Z,92.71
2018-02-07T00:35:46.216Z,92.33
2018-02-07T00:36:46.180Z,92.9
2018-02-07T00:37:46.151Z,92.99
2018-02-07T00:38:46.118Z,92.52
2018-02-07T00:39:46.085Z,92.99
2018-02-07T00:40:46.051Z,92.99
2018-02-07T00:41:46.015Z,92.61
2018-02-07T00:42:45.989Z,92.61
2018-02-07T00:43:45.954Z,92.61
2018-02-07T00:44:45.917Z,92.33
2018-02-07T00:45:45.895Z,92.71
2018-02-07T00:46:45.853Z,92.8
2018-02-07T00:47:45.828Z,92.61
2018-02-07T00:48:45.788Z,92.71
2018-02-07T00:49:45.755Z,92.8
2018-02-07T00:50:45.476Z,92.52
2018-02-07T00:51:45.727Z,92.61
2018-02-07T00:52:45.656Z,92.24
2018-02-07T00:53:45.619Z,92.9
2018-02-07T00:54:45.590Z,93.09
2018-02-07T00:55:45.554Z,92.9
2018-02-07T00:56:45.523Z,93.37
2018-02-07T00:57:45.488Z,93.09
2018-02-07T00:58:45.456Z,92.52
2018-02-07T00:59:45.424Z,92.52
2018-02-07T01:00:45.392Z,93.18
2018-02-07T01:01:45.355Z,93.28
2018-02-07T01:02:45.083Z,93.37
2018-02-07T01:03:45.289Z,93.28
2018-02-07T01:04:45.260Z,93.37
2018-02-07T01:05:45.224Z,93.47
2018-02-07T01:06:45.194Z,93.28
2018-02-07T01:07:45.158Z,93.37
2018-02-07T01:08:44.883Z,93.18
2018-02-07T01:09:45.095Z,93.09
2018-02-07T01:10:45.060Z,93.09
2018-02-07T01:11:45.029Z,93.18
2018-02-07T01:12:44.996Z,93.09
2018-02-07T01:13:44.966Z,93.18
2018-02-07T01:14:44.928Z,93.09
2018-02-07T01:15:44.651Z,93.66
2018-02-07T01:16:44.861Z,92.99
2018-02-07T01:17:44.826Z,93.09
2018-02-07T01:18:44.818Z,93.09
2018-02-07T01:19:44.768Z,93.18
2018-02-07T01:20:44.734Z,93.56
2018-02-07T01:21:44.707Z,93.28
2018-02-07T01:22:44.662Z,93.28
2018-02-07T01:23:44.631Z,93.56
2018-02-07T01:24:44.597Z,93.09
2018-02-07T01:25:44.567Z,93.09
2018-02-07T01:26:44.534Z,93.56
2018-02-07T01:27:44.504Z,92.99
2018-02-07T01:28:44.467Z,93.28
2018-02-07T01:29:44.432Z,93.37
2018-02-07T01:30:44.401Z,93.18
2018-02-07T01:31:44.366Z,92.99
2018-02-07T01:32:44.333Z,93.09
2018-02-07T01:33:44.302Z,93.56
2018-02-07T01:34:44.021Z,93.37
2018-02-07T01:35:44.240Z,93.47
2018-02-07T01:36:44.204Z,93.47
2018-02-07T01:37:44.166Z,93.37
2018-02-07T01:38:44.135Z,93.47
2018-02-07T01:39:44.109Z,93.47
2018-02-07T01:40:44.067Z,93.47
2018-02-07T01:41:44.038Z,93.94
2018-02-07T01:42:43.758Z,93.56
2018-02-07T01:43:43.969Z,93.75
2018-02-07T01:44:43.938Z,93.75
2018-02-07T01:45:43.906Z,93.94
2018-02-07T01:46:43.869Z,93.66
2018-02-07T01:47:43.839Z,93.66
2018-02-07T01:48:43.804Z,93.66
2018-02-07T01:49:43.770Z,93.94
2018-02-07T01:50:43.737Z,93.75
2018-02-07T01:51:43.704Z,93.47
2018-02-07T01:52:43.670Z,93.56
2018-02-07T01:53:43.637Z,93.84
2018-02-07T01:54:43.605Z,93.75
2018-02-07T01:55:43.574Z,93.66
2018-02-07T01:56:43.538Z,93.94
2018-02-07T01:57:43.505Z,93.84
2018-02-07T01:58:43.491Z,93.66
2018-02-07T01:59:43.439Z,93.84
2018-02-07T02:00:43.408Z,93.66
2018-02-07T02:01:43.374Z,93.66
2018-02-07T02:02:43.346Z,93.75
2018-02-07T02:03:43.307Z,93.84
2018-02-07T02:04:43.277Z,93.84
2018-02-07T02:05:43.241Z,93.94
2018-02-07T02:06:42.963Z,93.56
2018-02-07T02:07:43.176Z,93.66
2018-02-07T02:08:42.904Z,93.56
2018-02-07T02:09:43.113Z,93.56
2018-02-07T02:10:43.082Z,93.47
2018-02-07T02:11:42.798Z,93.75
2018-02-07T02:12:43.012Z,93.94
2018-02-07T02:13:42.995Z,93.47
2018-02-07T02:14:42.944Z,93.94
2018-02-07T02:15:42.913Z,93.84
2018-02-07T02:16:42.881Z,93.84
2018-02-07T02:17:42.847Z,93.47
2018-02-07T02:18:42.568Z,93.94
2018-02-07T02:19:42.783Z,93.94
2018-02-07T02:20:42.804Z,93.66
2018-02-07T02:21:42.719Z,93.75
2018-02-07T02:22:42.686Z,93.66
2018-02-07T02:23:42.652Z,93.75
2018-02-07T02:24:42.620Z,93.66
2018-02-07T02:25:42.582Z,93.94
2018-02-07T02:26:42.556Z,93.94
2018-02-07T02:27:42.516Z,93.56
2018-02-07T02:28:42.240Z,93.75
2018-02-07T02:29:42.451Z,93.75
2018-02-07T02:30:42.421Z,93.66
2018-02-07T02:31:42.392Z,93.56
2018-02-07T02:32:42.358Z,93.84
2018-02-07T02:33:42.323Z,93.94
2018-02-07T02:34:42.290Z,93.28
2018-02-07T02:35:42.253Z,93.84
2018-02-07T02:36:42.225Z,93.66
2018-02-07T02:37:42.192Z,93.84
2018-02-07T02:38:42.157Z,93.94
2018-02-07T02:39:42.126Z,93.94
2018-02-07T02:40:42.090Z,93.84
2018-02-07T02:41:42.066Z,93.84
2018-02-07T02:42:42.024Z,93.84
2018-02-07T02:43:41.747Z,93.84
2018-02-07T02:44:41.713Z,93.84
2018-02-07T02:45:41.927Z,94.32
2018-02-07T02:46:41.902Z,94.13
2018-02-07T02:47:41.862Z,94.13
2018-02-07T02:48:41.832Z,94.03
2018-02-07T02:49:41.797Z,93.84
2018-02-07T02:50:41.761Z,94.22
2018-02-07T02:51:41.729Z,94.22
2018-02-07T02:52:41.451Z,94.7
2018-02-07T02:53:41.669Z,94.51
2018-02-07T02:54:41.642Z,94.32
2018-02-07T02:55:41.599Z,94.7
2018-02-07T02:56:41.563Z,94.32
2018-02-07T02:57:41.531Z,94.13
2018-02-07T02:58:41.500Z,94.7
2018-02-07T02:59:41.466Z,94.41
2018-02-07T03:00:41.187Z,94.7
2018-02-07T03:01:41.407Z,94.41
2018-02-07T03:02:41.365Z,94.6
2018-02-07T03:03:41.332Z,94.41
2018-02-07T03:04:41.080Z,94.7
2018-02-07T03:05:41.265Z,94.32
2018-02-07T03:06:41.241Z,95.07
2018-02-07T03:07:41.205Z,94.74
2018-02-07T03:08:40.921Z,94.98
2018-02-07T03:09:41.133Z,94.89
2018-02-07T03:10:41.102Z,95.07
2018-02-07T03:11:41.068Z,94.7
2018-02-07T03:12:40.790Z,94.98
2018-02-07T03:13:40.762Z,94.79
2018-02-07T03:14:40.966Z,94.6
2018-02-07T03:15:40.938Z,94.79
2018-02-07T03:16:40.660Z,94.79
2018-02-07T03:17:40.970Z,94.98
2018-02-07T03:18:40.837Z,95.07
2018-02-07T03:19:40.804Z,94.74
2018-02-07T03:20:40.771Z,95.26
2018-02-07T03:21:40.763Z,95.26
2018-02-07T03:22:40.704Z,95.31
2018-02-07T03:23:40.672Z,95.03
2018-02-07T03:24:40.634Z,95.73
2018-02-07T03:25:40.600Z,95.5
2018-02-07T03:26:40.323Z,95.87
2018-02-07T03:27:40.544Z,95.4
2018-02-07T03:28:40.503Z,95.5
2018-02-07T03:29:40.471Z,95.4
2018-02-07T03:30:40.438Z,95.5
2018-02-07T03:31:40.408Z,95.59
2018-02-07T03:32:40.123Z,95.31
2018-02-07T03:33:40.339Z,95.12
2018-02-07T03:34:40.057Z,95.12
2018-02-07T03:35:40.027Z,95.78
2018-02-07T03:36:40.240Z,95.78
2018-02-07T03:37:40.206Z,95.78
2018-02-07T03:38:40.170Z,95.78
2018-02-07T03:39:40.138Z,96.06
2018-02-07T03:40:40.105Z,95.68
2018-02-07T03:41:40.071Z,95.59
2018-02-07T03:42:40.039Z,95.5
2018-02-07T03:43:40.002Z,96.06
2018-02-07T03:44:39.969Z,96.06
2018-02-07T03:45:39.939Z,96.06
2018-02-07T03:46:39.902Z,95.68
2018-02-07T03:47:39.870Z,95.87
2018-02-07T03:48:39.837Z,95.78
2018-02-07T03:49:39.805Z,95.87
2018-02-07T03:50:39.771Z,95.78
2018-02-07T03:51:39.742Z,95.87
2018-02-07T03:52:39.707Z,95.78
2018-02-07T03:53:39.671Z,95.78
2018-02-07T03:54:39.636Z,96.11
2018-02-07T03:55:39.359Z,95.4
2018-02-07T03:56:39.574Z,95.12
2018-02-07T03:57:39.539Z,96.02
2018-02-07T03:58:39.503Z,95.21
2018-02-07T03:59:39.225Z,95.83
2018-02-07T04:00:39.441Z,95.31
2018-02-07T04:01:39.406Z,95.12
2018-02-07T04:02:39.376Z,95.68
2018-02-07T04:03:39.341Z,95.78
2018-02-07T04:04:39.305Z,95.4
2018-02-07T04:05:39.272Z,95.31
2018-02-07T04:06:39.238Z,95.78
2018-02-07T04:07:39.213Z,95.68
2018-02-07T04:08:39.174Z,95.12
2018-02-07T04:09:39.137Z,95.12
2018-02-07T04:10:39.107Z,95.5
2018-02-07T04:11:39.071Z,95.31
2018-02-07T04:12:38.795Z,95.31
2018-02-07T04:13:38.760Z,95.97
2018-02-07T04:14:38.973Z,96.11
2018-02-07T04:15:38.944Z,95.59
2018-02-07T04:16:38.920Z,95.36
2018-02-07T04:17:38.872Z,95.4
2018-02-07T04:18:38.839Z,95.31
2018-02-07T04:19:38.811Z,95.31
2018-02-07T04:20:38.528Z,95.17
2018-02-07T04:21:38.494Z,95.12
2018-02-07T04:22:38.709Z,95.73
2018-02-07T04:23:38.674Z,95.31
2018-02-07T04:24:38.658Z,95.45
2018-02-07T04:25:38.608Z,95.5
2018-02-07T04:26:38.330Z,95.31
2018-02-07T04:27:38.545Z,95.4
2018-02-07T04:28:38.510Z,95.12
2018-02-07T04:29:38.474Z,95.12
2018-02-07T04:30:38.444Z,95.31
2018-02-07T04:31:38.409Z,95.17
2018-02-07T04:32:38.377Z,95.4
2018-02-07T04:33:38.347Z,95.78
2018-02-07T04:34:38.308Z,95.78
2018-02-07T04:35:38.277Z,95.45
2018-02-07T04:36:38.245Z,95.03
2018-02-07T04:37:38.212Z,95.73
2018-02-07T04:38:38.173Z,95.17
2018-02-07T04:39:38.144Z,95.54
2018-02-07T04:40:38.108Z,95.64
2018-02-07T04:41:38.075Z,95.4
2018-02-07T04:42:37.797Z,95.45
2018-02-07T04:43:38.012Z,95.68
2018-02-07T04:44:37.975Z,95.5
2018-02-07T04:45:37.942Z,95.97
2018-02-07T04:46:37.664Z,95.4
2018-02-07T04:47:37.633Z,96.06
2018-02-07T04:48:37.597Z,95.78
2018-02-07T04:49:37.807Z,95.31
2018-02-07T04:50:37.778Z,95.21
2018-02-07T04:51:37.499Z,95.4
2018-02-07T04:52:37.714Z,95.21
2018-02-07T04:53:37.675Z,95.87
2018-02-07T04:54:37.644Z,95.83
2018-02-07T04:55:37.608Z,95.78
2018-02-07T04:56:37.577Z,95.31
2018-02-07T04:57:37.300Z,95.31
2018-02-07T04:58:37.267Z,95.54
2018-02-07T04:59:37.484Z,95.26
2018-02-07T05:00:37.444Z,95.07
2018-02-07T05:01:37.414Z,95.31
2018-02-07T05:02:37.382Z,95.31
2018-02-07T05:03:37.347Z,95.31
2018-02-07T05:04:37.067Z,95.12
2018-02-07T05:05:37.032Z,95.21
2018-02-07T05:06:37.244Z,95.92
2018-02-07T05:07:37.210Z,95.21
2018-02-07T05:08:37.179Z,95.68
2018-02-07T05:09:37.144Z,95.12
2018-02-07T05:10:37.110Z,96.06
2018-02-07T05:11:37.079Z,95.5
2018-02-07T05:12:37.197Z,96.06
2018-02-07T05:13:36.766Z,95.68
2018-02-07T05:14:36.983Z,95.5
2018-02-07T05:15:36.698Z,95.31
2018-02-07T05:16:36.910Z,95.68
2018-02-07T05:17:36.877Z,95.68
2018-02-07T05:18:36.847Z,95.78
2018-02-07T05:19:36.815Z,95.78
2018-02-07T05:20:36.776Z,95.78
2018-02-07T05:21:36.743Z,95.78
2018-02-07T05:22:36.712Z,95.59
2018-02-07T05:23:36.676Z,95.78
2018-02-07T05:24:36.645Z,95.78
2018-02-07T05:25:36.364Z,95.68
2018-02-07T05:26:36.332Z,95.59
2018-02-07T05:27:36.352Z,95.78
2018-02-07T05:28:36.511Z,95.78
2018-02-07T05:29:36.477Z,95.87
2018-02-07T05:30:36.445Z,95.78
2018-02-07T05:31:36.412Z,96.44
2018-02-07T05:32:36.376Z,96.35
2018-02-07T05:33:36.388Z,96.35
2018-02-07T05:34:36.063Z,96.35
2018-02-07T05:35:36.032Z,96.54
2018-02-07T05:36:36.242Z,96.35
2018-02-07T05:37:36.210Z,96.35
2018-02-07T05:38:36.178Z,96.25
2018-02-07T05:39:36.143Z,96.25
2018-02-07T05:40:36.109Z,95.68
2018-02-07T05:41:36.073Z,96.16
2018-02-07T05:42:36.048Z,96.16
2018-02-07T05:43:36.012Z,96.06
2018-02-07T05:44:35.972Z,95.87
2018-02-07T05:45:35.937Z,95.78
2018-02-07T05:46:35.909Z,96.54
2018-02-07T05:47:35.627Z,96.54
2018-02-07T05:48:35.840Z,96.91
2018-02-07T05:49:35.806Z,96.82
2018-02-07T05:50:35.771Z,96.54
2018-02-07T05:51:35.738Z,96.35
2018-02-07T05:52:35.706Z,96.54
2018-02-07T05:53:35.424Z,96.16
2018-02-07T05:54:35.635Z,96.63
2018-02-07T05:55:35.357Z,96.63
2018-02-07T05:56:35.568Z,96.35
2018-02-07T05:57:35.534Z,97.1
2018-02-07T05:58:35.500Z,96.91
2018-02-07T05:59:35.469Z,97.2
2018-02-07T06:00:35.433Z,97.1
2018-02-07T06:01:35.401Z,97.1
2018-02-07T06:02:35.366Z,96.82
2018-02-07T06:03:35.332Z,96.73
2018-02-07T06:04:35.300Z,97.29
2018-02-07T06:05:35.266Z,97.29
2018-02-07T06:06:35.230Z,97.29
2018-02-07T06:07:35.198Z,97.39
2018-02-07T06:08:35.168Z,96.91
2018-02-07T06:09:35.129Z,97.77
2018-02-07T06:10:35.097Z,97.77
2018-02-07T06:11:35.062Z,97.1
2018-02-07T06:12:35.025Z,97.58
2018-02-07T06:13:34.991Z,97.58
2018-02-07T06:14:35.013Z,97.58
2018-02-07T06:15:34.927Z,98.05
2018-02-07T06:16:34.889Z,97.48
2018-02-07T06:17:34.611Z,97.58
2018-02-07T06:18:34.825Z,97.48
2018-02-07T06:19:34.790Z,97.58
2018-02-07T06:20:34.760Z,97.67
2018-02-07T06:21:34.740Z,97.29
2018-02-07T06:22:34.688Z,97.48
2018-02-07T06:23:34.657Z,97.58
2018-02-07T06:24:34.621Z,97.29
2018-02-07T06:25:34.591Z,97.48
2018-02-07T06:26:34.557Z,97.48
2018-02-07T06:27:34.271Z,97.67
2018-02-07T06:28:34.486Z,97.67
2018-02-07T06:29:34.452Z,97.58
2018-02-07T06:30:34.423Z,97.67
2018-02-07T06:31:34.385Z,97.58
2018-02-07T06:32:34.354Z,97.86
2018-02-07T06:33:34.317Z,97.96
2018-02-07T06:34:34.284Z,97.67
2018-02-07T06:35:34.002Z,97.67
2018-02-07T06:36:34.214Z,98.05
2018-02-07T06:37:34.181Z,97.67
2018-02-07T06:38:34.146Z,97.86
2018-02-07T06:39:34.114Z,97.77
2018-02-07T06:40:34.079Z,97.77
2018-02-07T06:41:34.045Z,97.86
2018-02-07T06:42:33.763Z,97.86
2018-02-07T06:43:33.976Z,97.67
2018-02-07T06:44:33.940Z,97.77
2018-02-07T06:45:33.666Z,98.05
2018-02-07T06:46:33.628Z,97.86
2018-02-07T06:47:33.844Z,98.33
2018-02-07T06:48:33.559Z,98.61
2018-02-07T06:49:33.771Z,98.33
2018-02-07T06:50:33.736Z,98.43
2018-02-07T06:51:33.460Z,98.33
2018-02-07T06:52:33.743Z,98.43
2018-02-07T06:53:33.633Z,98.14
2018-02-07T06:54:33.600Z,98.43
2018-02-07T06:55:33.328Z,98.33
2018-02-07T06:56:33.536Z,98.52
2018-02-07T06:57:33.500Z,98.14
2018-02-07T06:58:33.220Z,97.77
2018-02-07T06:59:33.435Z,98.33
2018-02-07T07:00:33.746Z,98.33
2018-02-07T07:01:33.479Z,97.96
2018-02-07T07:02:33.333Z,97.96
2018-02-07T07:03:33.300Z,97.96
2018-02-07T07:04:33.265Z,98.14
2018-02-07T07:05:33.231Z,98.61
2018-02-07T07:06:32.949Z,98.52
2018-02-07T07:07:33.163Z,98.52
2018-02-07T07:08:33.128Z,98.33
2018-02-07T07:09:33.094Z,98.52
2018-02-07T07:10:33.061Z,98.71
2018-02-07T07:11:33.031Z,98.61
2018-02-07T07:12:32.989Z,98.61
2018-02-07T07:13:32.964Z,98.71
2018-02-07T07:14:32.921Z,98.71
2018-02-07T07:15:32.889Z,98.71
2018-02-07T07:16:32.855Z,98.24
2018-02-07T07:17:32.822Z,98.9
2018-02-07T07:18:32.787Z,98.9
2018-02-07T07:19:32.755Z,98.99
2018-02-07T07:20:32.474Z,98.8
2018-02-07T07:21:32.685Z,98.99
2018-02-07T07:22:32.653Z,98.99
2018-02-07T07:23:32.618Z,98.71
2018-02-07T07:24:32.583Z,98.99
2018-02-07T07:25:32.549Z,98.9
2018-02-07T07:26:32.271Z,98.9
2018-02-07T07:27:32.483Z,98.8
2018-02-07T07:28:32.453Z,98.8
2018-02-07T07:29:32.418Z,98.9
2018-02-07T07:30:32.136Z,98.9
2018-02-07T07:31:32.102Z,98.8
2018-02-07T07:32:32.316Z,98.9
2018-02-07T07:33:32.276Z,98.71
2018-02-07T07:34:32.249Z,98.8
2018-02-07T07:35:32.213Z,98.9
2018-02-07T07:36:32.181Z,98.8
2018-02-07T07:37:32.142Z,99.08
2018-02-07T07:38:32.109Z,98.71
2018-02-07T07:39:32.081Z,99.08
2018-02-07T07:40:32.042Z,98.99
2018-02-07T07:41:32.010Z,98.71
2018-02-07T07:42:31.978Z,98.9
2018-02-07T07:43:31.940Z,98.8
2018-02-07T07:44:31.909Z,98.8
2018-02-07T07:45:31.628Z,98.9
2018-02-07T07:46:31.838Z,98.71
2018-02-07T07:47:31.811Z,98.99
2018-02-07T07:48:31.776Z,98.9
2018-02-07T07:49:31.740Z,98.9
2018-02-07T07:50:31.706Z,98.61
2018-02-07T07:51:31.425Z,99.08
2018-02-07T07:52:31.391Z,99.27
2018-02-07T07:53:31.606Z,98.9
2018-02-07T07:54:31.575Z,98.71
2018-02-07T07:55:31.537Z,98.99
2018-02-07T07:56:31.505Z,98.61
2018-02-07T07:57:31.471Z,98.71
2018-02-07T07:58:31.439Z,98.71
2018-02-07T07:59:31.157Z,98.71
2018-02-07T08:00:31.371Z,99.08
2018-02-07T08:01:31.336Z,98.9
2018-02-07T08:02:31.305Z,98.71
2018-02-07T08:03:31.269Z,98.61
2018-02-07T08:04:31.236Z,98.99
2018-02-07T08:05:31.203Z,98.9
2018-02-07T08:06:31.167Z,98.99
2018-02-07T08:07:31.135Z,98.99
2018-02-07T08:08:31.099Z,99.27
2018-02-07T08:09:31.070Z,99.08
2018-02-07T08:10:30.788Z,98.9
2018-02-07T08:11:30.999Z,98.71
2018-02-07T08:12:30.967Z,98.61
2018-02-07T08:13:30.932Z,98.71
2018-02-07T08:14:30.899Z,98.33
2018-02-07T08:15:30.869Z,98.52
2018-02-07T08:16:30.836Z,98.33
2018-02-07T08:17:30.799Z,98.71
2018-02-07T08:18:30.767Z,98.14
2018-02-07T08:19:30.731Z,97.86
2018-02-07T08:20:30.702Z,97.96
2018-02-07T08:21:30.664Z,98.14
2018-02-07T08:22:30.635Z,98.24
2018-02-07T08:23:30.601Z,98.33
2018-02-07T08:24:30.604Z,98.71
2018-02-07T08:25:30.288Z,98.61
2018-02-07T08:26:30.500Z,98.52
2018-02-07T08:27:30.222Z,98.05
2018-02-07T08:28:30.434Z,97.96
2018-02-07T08:29:30.398Z,98.05
2018-02-07T08:30:30.375Z,97.96
2018-02-07T08:31:30.090Z,97.96
2018-02-07T08:32:30.300Z,98.05
2018-02-07T08:33:30.270Z,98.05
2018-02-07T08:34:29.990Z,97.86
2018-02-07T08:35:30.199Z,97.67
2018-02-07T08:36:30.167Z,97.39
2018-02-07T08:37:30.191Z,97.58
2018-02-07T08:38:30.099Z,97.77
2018-02-07T08:39:30.065Z,96.91
2018-02-07T08:40:30.036Z,97.2
2018-02-07T08:41:30.008Z,97.29
2018-02-07T08:42:29.723Z,97.48
2018-02-07T08:43:29.932Z,97.29
2018-02-07T08:44:29.904Z,97.39
2018-02-07T08:45:29.871Z,97.01
2018-02-07T08:46:29.838Z,97.29
2018-02-07T08:47:29.804Z,97.29
2018-02-07T08:48:29.900Z,97.1
2018-02-07T08:49:29.490Z,97.2
2018-02-07T08:50:29.629Z,97.1
2018-02-07T08:51:29.672Z,97.1
2018-02-07T08:52:29.391Z,96.63
2018-02-07T08:53:29.605Z,96.63
2018-02-07T08:54:29.572Z,96.63
2018-02-07T08:55:29.603Z,96.44
2018-02-07T08:56:29.504Z,96.63
2018-02-07T08:57:29.226Z,96.73
2018-02-07T08:58:29.565Z,95.87
2018-02-07T08:59:29.406Z,96.16
2018-02-07T09:00:29.131Z,96.16
2018-02-07T09:01:29.343Z,95.97
2018-02-07T09:02:29.313Z,96.16
2018-02-07T09:03:29.378Z,96.25
2018-02-07T09:04:29.245Z,95.78
2018-02-07T09:05:29.212Z,95.87
2018-02-07T09:06:29.181Z,96.06
2018-02-07T09:07:29.148Z,96.16
2018-02-07T09:08:29.115Z,96.44
2018-02-07T09:09:29.100Z,96.06
2018-02-07T09:10:29.051Z,96.35
2018-02-07T09:11:29.016Z,96.16
2018-02-07T09:12:28.982Z,96.06
2018-02-07T09:13:28.702Z,96.25
2018-02-07T09:14:28.674Z,96.35
2018-02-07T09:15:28.890Z,96.49
2018-02-07T09:16:28.851Z,95.68
2018-02-07T09:17:28.823Z,95.64
2018-02-07T09:18:28.542Z,95.83
2018-02-07T09:19:28.531Z,95.59
2018-02-07T09:20:28.718Z,95.59
2018-02-07T09:21:28.767Z,95.83
2018-02-07T09:22:28.654Z,95.83
2018-02-07T09:23:28.891Z,95.83
2018-02-07T09:24:29.221Z,95.68
2018-02-07T09:25:28.312Z,95.26
2018-02-07T09:26:28.523Z,95.07
2018-02-07T09:27:28.247Z,95.36
2018-02-07T09:28:28.457Z,94.98
2018-02-07T09:29:28.425Z,95.64
2018-02-07T09:30:28.393Z,95.45
2018-02-07T09:31:28.364Z,95.36
2018-02-07T09:32:28.083Z,95.07
2018-02-07T09:33:28.053Z,95.17
2018-02-07T09:34:28.265Z,95.26
2018-02-07T09:35:28.232Z,94.79
2018-02-07T09:36:28.202Z,95.17
2018-02-07T09:37:28.165Z,94.79
2018-02-07T09:38:28.138Z,94.51
2018-02-07T09:39:28.105Z,93.75
2018-02-07T09:40:27.823Z,94.03
2018-02-07T09:41:28.043Z,94.13
2018-02-07T09:42:27.760Z,94.03
2018-02-07T09:43:27.974Z,94.32
2018-02-07T09:44:27.695Z,94.32
2018-02-07T09:45:27.909Z,93.94
2018-02-07T09:46:27.875Z,94.13
2018-02-07T09:47:27.905Z,93.66
2018-02-07T09:48:27.817Z,93.56
2018-02-07T09:49:27.533Z,93.37
2018-02-07T09:50:27.756Z,93.18
2018-02-07T09:51:27.470Z,93.09
2018-02-07T09:52:27.682Z,92.99
2018-02-07T09:53:27.531Z,93.28
2018-02-07T09:54:27.619Z,93.09
2018-02-07T09:55:27.586Z,93.09
2018-02-07T09:56:27.307Z,93.18
2018-02-07T09:57:27.275Z,92.9
2018-02-07T09:58:27.243Z,92.9
2018-02-07T09:59:27.210Z,93.18
2018-02-07T10:00:27.422Z,92.52
2018-02-07T10:01:27.393Z,92.52
2018-02-07T10:02:27.363Z,92.61
2018-02-07T10:03:27.325Z,92.33
2018-02-07T10:04:27.049Z,92.8
2018-02-07T10:05:27.262Z,92.33
2018-02-07T10:06:27.229Z,92.61
2018-02-07T10:07:26.969Z,92.71
2018-02-07T10:08:26.919Z,92.61
2018-02-07T10:09:26.888Z,92.43
2018-02-07T10:10:26.855Z,92.33
2018-02-07T10:11:26.824Z,92.71
2018-02-07T10:12:27.035Z,92.24
2018-02-07T10:13:26.768Z,92.33
2018-02-07T10:14:26.727Z,92.43
2018-02-07T10:15:26.942Z,92.61
2018-02-07T10:16:26.913Z,92.24
2018-02-07T10:17:27.133Z,92.61
2018-02-07T10:18:26.597Z,92.52
2018-02-07T10:19:26.566Z,92.61
2018-02-07T10:20:26.782Z,92.52
2018-02-07T10:21:26.745Z,92.8
2018-02-07T10:22:26.470Z,92.14
2018-02-07T10:23:26.681Z,91.96
2018-02-07T10:24:26.658Z,91.58
2018-02-07T10:25:26.620Z,91.29
2018-02-07T10:26:26.339Z,91.48
2018-02-07T10:27:26.556Z,91.48
2018-02-07T10:28:26.283Z,91.39
2018-02-07T10:29:26.247Z,91.39
2018-02-07T10:30:26.212Z,91.39
2018-02-07T10:31:26.183Z,91.1
2018-02-07T10:32:26.392Z,91.39
2018-02-07T10:33:26.360Z,91.29
2018-02-07T10:34:26.334Z,91.1
2018-02-07T10:35:26.296Z,90.91
2018-02-07T10:36:26.268Z,90.54
2018-02-07T10:37:26.236Z,90.63
2018-02-07T10:38:26.200Z,90.73
2018-02-07T10:39:25.931Z,90.63
2018-02-07T10:40:26.141Z,90.82
2018-02-07T10:41:25.862Z,90.73
2018-02-07T10:42:25.831Z,90.73
2018-02-07T10:43:26.156Z,90.73
2018-02-07T10:44:26.015Z,90.16
2018-02-07T10:45:25.772Z,90.49
2018-02-07T10:46:25.954Z,89.83
2018-02-07T10:47:25.667Z,89.92
2018-02-07T10:48:25.641Z,89.45
2018-02-07T10:49:25.604Z,89.45
2018-02-07T10:50:25.821Z,89.83
2018-02-07T10:51:25.541Z,90.01
2018-02-07T10:52:25.509Z,90.01
2018-02-07T10:53:25.723Z,89.83
2018-02-07T10:54:25.690Z,89.54
2018-02-07T10:55:25.496Z,89.73
2018-02-07T10:56:25.658Z,89.17
2018-02-07T10:57:25.351Z,89.92
2018-02-07T10:58:25.576Z,89.17
2018-02-07T10:59:25.531Z,89.45
2018-02-07T11:00:25.498Z,89.26
2018-02-07T11:01:25.470Z,89.26
2018-02-07T11:02:25.435Z,89.07
2018-02-07T11:03:25.406Z,88.88
2018-02-07T11:04:25.370Z,89.07
2018-02-07T11:05:25.342Z,88.5
2018-02-07T11:06:25.308Z,88.41
2018-02-07T11:07:25.284Z,88.41
2018-02-07T11:08:25.245Z,88.41
2018-02-07T11:09:25.215Z,88.41
2018-02-07T11:10:25.183Z,88.31
2018-02-07T11:11:25.004Z,88.5
2018-02-07T11:12:25.119Z,88.5
2018-02-07T11:13:25.086Z,87.74
2018-02-07T11:14:25.058Z,88.03
2018-02-07T11:15:25.023Z,88.12
2018-02-07T11:16:24.991Z,88.31
2018-02-07T11:17:24.959Z,87.84
2018-02-07T11:18:24.930Z,87.84
2018-02-07T11:19:24.897Z,87.93
2018-02-07T11:20:24.619Z,88.03
2018-02-07T11:21:24.838Z,87.46
2018-02-07T11:22:24.809Z,87.27
2018-02-07T11:23:24.776Z,87.37
2018-02-07T11:24:24.737Z,87.37
2018-02-07T11:25:24.464Z,87.37
2018-02-07T11:26:24.431Z,87.55
2018-02-07T11:27:24.644Z,87.27
2018-02-07T11:28:24.615Z,87.08
2018-02-07T11:29:24.590Z,87.08
2018-02-07T11:30:24.552Z,86.61
2018-02-07T11:31:24.528Z,86.99
2018-02-07T11:32:24.490Z,86.99
2018-02-07T11:33:24.456Z,86.99
2018-02-07T11:34:24.431Z,86.99
2018-02-07T11:35:24.517Z,86.99
2018-02-07T11:36:24.362Z,86.8
2018-02-07T11:37:24.330Z,87.18
2018-02-07T11:38:24.301Z,86.61
2018-02-07T11:39:24.266Z,86.8
2018-02-07T11:40:23.992Z,86.33
2018-02-07T11:41:24.207Z,86.23
2018-02-07T11:42:24.182Z,86.56
2018-02-07T11:43:24.143Z,86.47
2018-02-07T11:44:23.867Z,85.9
2018-02-07T11:45:24.082Z,85.71
2018-02-07T11:46:24.048Z,85.71
2018-02-07T11:47:24.022Z,85.24
2018-02-07T11:48:23.742Z,85.33
2018-02-07T11:49:23.712Z,85.14
2018-02-07T11:50:23.927Z,85.05
2018-02-07T11:51:23.896Z,85.14
2018-02-07T11:52:23.865Z,84.58
2018-02-07T11:53:23.783Z,84.58
2018-02-07T11:54:23.802Z,84.48
2018-02-07T11:55:23.770Z,84.48
2018-02-07T11:56:23.746Z,84.1
2018-02-07T11:57:23.464Z,83.91
2018-02-07T11:58:23.679Z,84.39
2018-02-07T11:59:23.652Z,84.2
2018-02-07T12:00:23.374Z,83.91
2018-02-07T12:01:23.591Z,84.2
2018-02-07T12:02:23.562Z,83.72
2018-02-07T12:03:23.577Z,83.91
2018-02-07T12:04:23.499Z,83.72
2018-02-07T12:05:23.222Z,83.72
2018-02-07T12:06:23.436Z,83.82
2018-02-07T12:07:23.159Z,83.44
2018-02-07T12:08:23.376Z,83.25
2018-02-07T12:09:23.099Z,82.78
2018-02-07T12:10:23.317Z,83.34
2018-02-07T12:11:23.284Z,83.34
2018-02-07T12:12:23.398Z,83.44
2018-02-07T12:13:22.975Z,83.06
2018-02-07T12:14:22.943Z,83.34
2018-02-07T12:15:23.162Z,82.97
2018-02-07T12:16:23.215Z,83.34
2018-02-07T12:17:23.098Z,82.97
2018-02-07T12:18:23.156Z,83.15
2018-02-07T12:19:23.118Z,82.97
2018-02-07T12:20:23.011Z,83.06
2018-02-07T12:21:22.978Z,82.78
2018-02-07T12:22:22.697Z,83.06
2018-02-07T12:23:22.914Z,82.31
2018-02-07T12:24:22.638Z,82.12
2018-02-07T12:25:22.855Z,82.31
2018-02-07T12:26:22.573Z,82.4
2018-02-07T12:27:22.818Z,82.4
2018-02-07T12:28:22.757Z,82.4
2018-02-07T12:29:22.728Z,82.78
2018-02-07T12:30:22.450Z,82.21
2018-02-07T12:31:22.421Z,81.93
2018-02-07T12:32:22.640Z,81.93
2018-02-07T12:33:22.606Z,82.4
2018-02-07T12:34:22.582Z,81.93
2018-02-07T12:35:22.298Z,81.83
2018-02-07T12:36:22.514Z,81.36
2018-02-07T12:37:22.479Z,81.55
2018-02-07T12:38:22.203Z,81.45
2018-02-07T12:39:22.420Z,81.17
2018-02-07T12:40:22.482Z,81.17
2018-02-07T12:41:22.357Z,81.45
2018-02-07T12:42:22.327Z,81.26
2018-02-07T12:43:22.300Z,81.55
2018-02-07T12:44:22.263Z,81.17
2018-02-07T12:45:22.233Z,81.17
2018-02-07T12:46:22.205Z,81.17
2018-02-07T12:47:22.397Z,81.64
2018-02-07T12:48:22.255Z,81.36
2018-02-07T12:49:22.113Z,81.17
2018-02-07T12:50:22.482Z,81.17
2018-02-07T12:51:22.055Z,80.98
2018-02-07T12:52:21.777Z,80.98
2018-02-07T12:53:21.990Z,81.07
2018-02-07T12:54:21.964Z,81.17
2018-02-07T12:55:21.938Z,81.36